sensor_id;sensor_type;location;lat;lon;timestamp;P1;durP1;ratioP1;P2;durP2;ratioP2
13832;SDS011;6987;19.472;-99.276;2023-10-09T00:01:03;4.80;;;4.60;;
13832;SDS011;6987;19.472;-99.276;2023-10-09T00:03:39;4.57;;;4.18;;
13832;SDS011;6987;19.472;-99.276;2023-10-09T00:06:09;6.18;;;4.63;;
13832;SDS011;6987;19.472;-99.276;2023-10-09T00:08:41;4.10;;;3.95;;
13832;SDS011;6987;19.472;-99.276;2023-10-09T00:11:16;4.82;;;4.55;;
13832;SDS011;6987;19.472;-99.276;2023-10-09T00:13:45;4.35;;;4.15;;
13832;SDS011;6987;19.472;-99.276;2023-10-09T00:16:23;5.20;;;4.97;;
13832;SDS011;6987;19.472;-99.276;2023-10-09T00:19:01;6.00;;;5.60;;
13832;SDS011;6987;19.472;-99.276;2023-10-09T00:21:40;6.03;;;5.72;;
13832;SDS011;6987;19.472;-99.276;2023-10-09T00:24:12;6.20;;;5.60;;
13832;SDS011;6987;19.472;-99.276;2023-10-09T00:26:48;5.95;;;5.57;;
13832;SDS011;6987;19.472;-99.276;2023-10-09T00:29:21;6.40;;;6.00;;
13832;SDS011;6987;19.472;-99.276;2023-10-09T00:32:00;6.00;;;5.70;;
13832;SDS011;6987;19.472;-99.276;2023-10-09T00:34:39;7.55;;;7.05;;
13832;SDS011;6987;19.472;-99.276;2023-10-09T00:37:08;7.65;;;7.05;;
13832;SDS011;6987;19.472;-99.276;2023-10-09T00:39:44;6.65;;;6.25;;
13832;SDS011;6987;19.472;-99.276;2023-10-09T00:42:14;6.70;;;6.25;;
13832;SDS011;6987;19.472;-99.276;2023-10-09T00:44:53;6.80;;;6.40;;
13832;SDS011;6987;19.472;-99.276;2023-10-09T00:47:26;5.43;;;5.13;;
13832;SDS011;6987;19.472;-99.276;2023-10-09T00:50:00;6.28;;;5.88;;
13832;SDS011;6987;19.472;-99.276;2023-10-09T00:52:37;6.68;;;6.28;;
13832;SDS011;6987;19.472;-99.276;2023-10-09T00:55:11;6.25;;;5.95;;
13832;SDS011;6987;19.472;-99.276;2023-10-09T00:57:46;6.82;;;6.40;;
13832;SDS011;6987;19.472;-99.276;2023-10-09T01:00:25;6.97;;;6.47;;
13832;SDS011;6987;19.472;-99.276;2023-10-09T01:03:12;7.07;;;6.40;;
13832;SDS011;6987;19.472;-99.276;2023-10-09T01:05:48;7.50;;;6.90;;
13832;SDS011;6987;19.472;-99.276;2023-10-09T01:08:23;7.25;;;6.75;;
13832;SDS011;6987;19.472;-99.276;2023-10-09T01:10:57;7.20;;;6.57;;
13832;SDS011;6987;19.472;-99.276;2023-10-09T01:13:35;7.60;;;6.90;;
13832;SDS011;6987;19.472;-99.276;2023-10-09T01:16:18;6.97;;;6.57;;
13832;SDS011;6987;19.472;-99.276;2023-10-09T01:18:50;7.47;;;6.97;;
13832;SDS011;6987;19.472;-99.276;2023-10-09T01:21:22;7.93;;;7.32;;
13832;SDS011;6987;19.472;-99.276;2023-10-09T01:23:54;7.47;;;6.97;;
13832;SDS011;6987;19.472;-99.276;2023-10-09T01:26:34;7.47;;;6.82;;
13832;SDS011;6987;19.472;-99.276;2023-10-09T01:29:10;6.93;;;6.53;;
13832;SDS011;6987;19.472;-99.276;2023-10-09T01:31:42;6.35;;;5.85;;
13832;SDS011;6987;19.472;-99.276;2023-10-09T01:34:20;6.90;;;6.50;;
13832;SDS011;6987;19.472;-99.276;2023-10-09T01:37:04;6.38;;;6.05;;
13832;SDS011;6987;19.472;-99.276;2023-10-09T01:39:40;7.45;;;6.95;;
13832;SDS011;6987;19.472;-99.276;2023-10-09T01:42:10;6.88;;;6.47;;
13832;SDS011;6987;19.472;-99.276;2023-10-09T01:44:49;6.70;;;6.30;;
13832;SDS011;6987;19.472;-99.276;2023-10-09T01:47:19;7.00;;;6.53;;
13832;SDS011;6987;19.472;-99.276;2023-10-09T01:49:48;6.60;;;6.13;;
13832;SDS011;6987;19.472;-99.276;2023-10-09T01:52:19;6.30;;;5.90;;
13832;SDS011;6987;19.472;-99.276;2023-10-09T01:54:52;6.00;;;5.70;;
13832;SDS011;6987;19.472;-99.276;2023-10-09T01:57:29;7.07;;;6.68;;
13832;SDS011;6987;19.472;-99.276;2023-10-09T01:59:59;6.93;;;6.45;;
13832;SDS011;6987;19.472;-99.276;2023-10-09T02:02:29;6.72;;;6.32;;
13832;SDS011;6987;19.472;-99.276;2023-10-09T02:05:00;7.00;;;6.50;;
13832;SDS011;6987;19.472;-99.276;2023-10-09T02:07:36;6.32;;;5.90;;
13832;SDS011;6987;19.472;-99.276;2023-10-09T02:10:12;6.63;;;6.13;;
13832;SDS011;6987;19.472;-99.276;2023-10-09T02:12:57;6.78;;;6.38;;
13832;SDS011;6987;19.472;-99.276;2023-10-09T02:15:32;7.25;;;6.55;;
13832;SDS011;6987;19.472;-99.276;2023-10-09T02:18:17;6.78;;;6.38;;
13832;SDS011;6987;19.472;-99.276;2023-10-09T02:20:52;7.68;;;7.07;;
13832;SDS011;6987;19.472;-99.276;2023-10-09T02:23:40;7.43;;;6.97;;
13832;SDS011;6987;19.472;-99.276;2023-10-09T02:26:17;7.18;;;6.70;;
13832;SDS011;6987;19.472;-99.276;2023-10-09T02:28:51;7.30;;;6.68;;
13832;SDS011;6987;19.472;-99.276;2023-10-09T02:31:26;7.65;;;7.18;;
13832;SDS011;6987;19.472;-99.276;2023-10-09T02:34:01;8.75;;;8.05;;
13832;SDS011;6987;19.472;-99.276;2023-10-09T02:36:36;8.80;;;8.10;;
13832;SDS011;6987;19.472;-99.276;2023-10-09T02:39:07;8.55;;;7.95;;
13832;SDS011;6987;19.472;-99.276;2023-10-09T02:41:50;9.20;;;8.50;;
13832;SDS011;6987;19.472;-99.276;2023-10-09T02:44:26;8.60;;;7.93;;
13832;SDS011;6987;19.472;-99.276;2023-10-09T02:46:57;8.43;;;7.82;;
13832;SDS011;6987;19.472;-99.276;2023-10-09T02:49:31;8.50;;;7.70;;
13832;SDS011;6987;19.472;-99.276;2023-10-09T02:52:00;8.80;;;8.10;;
13832;SDS011;6987;19.472;-99.276;2023-10-09T02:54:33;9.20;;;8.40;;
13832;SDS011;6987;19.472;-99.276;2023-10-09T02:57:09;9.55;;;8.63;;
13832;SDS011;6987;19.472;-99.276;2023-10-09T02:59:48;9.75;;;9.05;;
13832;SDS011;6987;19.472;-99.276;2023-10-09T03:02:18;9.68;;;8.82;;
13832;SDS011;6987;19.472;-99.276;2023-10-09T03:04:49;9.52;;;8.80;;
13832;SDS011;6987;19.472;-99.276;2023-10-09T03:07:21;9.00;;;8.30;;
13832;SDS011;6987;19.472;-99.276;2023-10-09T03:09:50;9.73;;;8.95;;
13832;SDS011;6987;19.472;-99.276;2023-10-09T03:12:21;10.10;;;9.07;;
13832;SDS011;6987;19.472;-99.276;2023-10-09T03:14:53;8.70;;;8.05;;
13832;SDS011;6987;19.472;-99.276;2023-10-09T03:17:24;9.88;;;8.95;;
13832;SDS011;6987;19.472;-99.276;2023-10-09T03:19:53;9.35;;;8.65;;
13832;SDS011;6987;19.472;-99.276;2023-10-09T03:22:24;9.52;;;8.63;;
13832;SDS011;6987;19.472;-99.276;2023-10-09T03:24:53;8.88;;;8.13;;
13832;SDS011;6987;19.472;-99.276;2023-10-09T03:27:24;9.63;;;8.73;;
13832;SDS011;6987;19.472;-99.276;2023-10-09T03:29:54;9.10;;;8.45;;
13832;SDS011;6987;19.472;-99.276;2023-10-09T03:32:23;9.13;;;8.35;;
13832;SDS011;6987;19.472;-99.276;2023-10-09T03:34:52;9.45;;;8.40;;
13832;SDS011;6987;19.472;-99.276;2023-10-09T03:37:22;8.48;;;7.78;;
13832;SDS011;6987;19.472;-99.276;2023-10-09T03:40:00;8.93;;;8.32;;
13832;SDS011;6987;19.472;-99.276;2023-10-09T03:42:35;8.50;;;7.80;;
13832;SDS011;6987;19.472;-99.276;2023-10-09T03:45:05;9.18;;;8.38;;
13832;SDS011;6987;19.472;-99.276;2023-10-09T03:47:44;9.63;;;8.77;;
13832;SDS011;6987;19.472;-99.276;2023-10-09T03:50:14;10.35;;;9.45;;
13832;SDS011;6987;19.472;-99.276;2023-10-09T03:52:52;9.57;;;8.70;;
13832;SDS011;6987;19.472;-99.276;2023-10-09T03:55:22;10.35;;;8.85;;
13832;SDS011;6987;19.472;-99.276;2023-10-09T03:57:56;8.63;;;7.85;;
13832;SDS011;6987;19.472;-99.276;2023-10-09T04:00:27;8.38;;;7.55;;
13832;SDS011;6987;19.472;-99.276;2023-10-09T04:02:57;10.57;;;8.68;;
13832;SDS011;6987;19.472;-99.276;2023-10-09T04:05:28;8.82;;;8.13;;
13832;SDS011;6987;19.472;-99.276;2023-10-09T04:07:57;10.00;;;9.07;;
13832;SDS011;6987;19.472;-99.276;2023-10-09T04:10:27;9.95;;;9.10;;
13832;SDS011;6987;19.472;-99.276;2023-10-09T04:13:18;10.07;;;9.18;;
13832;SDS011;6987;19.472;-99.276;2023-10-09T04:15:58;12.30;;;8.82;;
13832;SDS011;6987;19.472;-99.276;2023-10-09T04:18:35;10.52;;;9.30;;
13832;SDS011;6987;19.472;-99.276;2023-10-09T04:21:07;9.68;;;8.80;;
13832;SDS011;6987;19.472;-99.276;2023-10-09T04:23:44;9.38;;;8.57;;
13832;SDS011;6987;19.472;-99.276;2023-10-09T04:26:30;9.30;;;8.38;;
13832;SDS011;6987;19.472;-99.276;2023-10-09T04:29:07;8.25;;;7.45;;
13832;SDS011;6987;19.472;-99.276;2023-10-09T04:31:44;8.88;;;8.18;;
13832;SDS011;6987;19.472;-99.276;2023-10-09T04:34:17;10.32;;;9.38;;
13832;SDS011;6987;19.472;-99.276;2023-10-09T04:36:55;8.63;;;7.88;;
13832;SDS011;6987;19.472;-99.276;2023-10-09T04:39:26;9.48;;;8.52;;
13832;SDS011;6987;19.472;-99.276;2023-10-09T04:42:13;8.32;;;7.63;;
13832;SDS011;6987;19.472;-99.276;2023-10-09T04:44:54;8.43;;;7.72;;
13832;SDS011;6987;19.472;-99.276;2023-10-09T04:47:42;8.82;;;8.13;;
13832;SDS011;6987;19.472;-99.276;2023-10-09T04:50:23;10.20;;;9.18;;
13832;SDS011;6987;19.472;-99.276;2023-10-09T04:53:34;9.00;;;8.30;;
13832;SDS011;6987;19.472;-99.276;2023-10-09T04:56:09;9.30;;;8.60;;
13832;SDS011;6987;19.472;-99.276;2023-10-09T04:58:43;10.43;;;9.40;;
13832;SDS011;6987;19.472;-99.276;2023-10-09T05:01:16;10.35;;;9.45;;
13832;SDS011;6987;19.472;-99.276;2023-10-09T05:04:02;10.02;;;9.23;;
13832;SDS011;6987;19.472;-99.276;2023-10-09T05:06:41;9.77;;;8.88;;
13832;SDS011;6987;19.472;-99.276;2023-10-09T05:09:20;8.98;;;8.18;;
13832;SDS011;6987;19.472;-99.276;2023-10-09T05:11:50;8.60;;;7.90;;
13832;SDS011;6987;19.472;-99.276;2023-10-09T05:14:41;9.18;;;8.15;;
13832;SDS011;6987;19.472;-99.276;2023-10-09T05:17:33;8.75;;;8.13;;
13832;SDS011;6987;19.472;-99.276;2023-10-09T05:20:04;8.65;;;7.93;;
13832;SDS011;6987;19.472;-99.276;2023-10-09T05:22:47;9.70;;;8.93;;
13832;SDS011;6987;19.472;-99.276;2023-10-09T05:25:33;8.63;;;8.02;;
13832;SDS011;6987;19.472;-99.276;2023-10-09T05:28:24;8.77;;;8.15;;
13832;SDS011;6987;19.472;-99.276;2023-10-09T05:30:57;8.98;;;8.27;;
13832;SDS011;6987;19.472;-99.276;2023-10-09T05:33:37;8.57;;;7.88;;
13832;SDS011;6987;19.472;-99.276;2023-10-09T05:36:05;8.70;;;7.97;;
13832;SDS011;6987;19.472;-99.276;2023-10-09T05:38:57;8.50;;;7.85;;
13832;SDS011;6987;19.472;-99.276;2023-10-09T05:41:25;8.70;;;8.05;;
13832;SDS011;6987;19.472;-99.276;2023-10-09T05:44:11;8.85;;;8.07;;
13832;SDS011;6987;19.472;-99.276;2023-10-09T05:47:03;8.80;;;8.00;;
13832;SDS011;6987;19.472;-99.276;2023-10-09T05:49:47;9.65;;;8.80;;
13832;SDS011;6987;19.472;-99.276;2023-10-09T05:52:32;9.55;;;8.75;;
13832;SDS011;6987;19.472;-99.276;2023-10-09T05:55:15;8.32;;;7.72;;
13832;SDS011;6987;19.472;-99.276;2023-10-09T05:58:09;8.70;;;7.80;;
13832;SDS011;6987;19.472;-99.276;2023-10-09T06:01:00;8.65;;;7.95;;
13832;SDS011;6987;19.472;-99.276;2023-10-09T06:03:46;9.05;;;8.30;;
13832;SDS011;6987;19.472;-99.276;2023-10-09T06:06:39;7.82;;;6.95;;
13832;SDS011;6987;19.472;-99.276;2023-10-09T06:09:12;8.18;;;7.57;;
13832;SDS011;6987;19.472;-99.276;2023-10-09T06:12:04;8.55;;;7.68;;
13832;SDS011;6987;19.472;-99.276;2023-10-09T06:14:50;8.75;;;7.57;;
13832;SDS011;6987;19.472;-99.276;2023-10-09T06:17:35;8.45;;;7.65;;
13832;SDS011;6987;19.472;-99.276;2023-10-09T06:20:16;7.78;;;7.13;;
13832;SDS011;6987;19.472;-99.276;2023-10-09T06:23:09;8.15;;;7.55;;
13832;SDS011;6987;19.472;-99.276;2023-10-09T06:25:43;7.40;;;6.75;;
13832;SDS011;6987;19.472;-99.276;2023-10-09T06:28:17;5.75;;;5.25;;
13832;SDS011;6987;19.472;-99.276;2023-10-09T06:30:58;5.70;;;5.30;;
13832;SDS011;6987;19.472;-99.276;2023-10-09T06:33:49;7.13;;;5.65;;
13832;SDS011;6987;19.472;-99.276;2023-10-09T06:36:34;6.82;;;6.13;;
13832;SDS011;6987;19.472;-99.276;2023-10-09T06:39:20;5.90;;;5.35;;
13832;SDS011;6987;19.472;-99.276;2023-10-09T06:42:06;5.97;;;5.13;;
13832;SDS011;6987;19.472;-99.276;2023-10-09T06:44:56;4.35;;;4.05;;
13832;SDS011;6987;19.472;-99.276;2023-10-09T06:47:31;4.72;;;4.32;;
13832;SDS011;6987;19.472;-99.276;2023-10-09T06:50:07;4.55;;;4.07;;
13832;SDS011;6987;19.472;-99.276;2023-10-09T06:52:50;4.70;;;4.40;;
13832;SDS011;6987;19.472;-99.276;2023-10-09T06:55:46;4.13;;;3.85;;
13832;SDS011;6987;19.472;-99.276;2023-10-09T06:58:15;3.40;;;3.22;;
13832;SDS011;6987;19.472;-99.276;2023-10-09T07:00:52;3.53;;;3.33;;
13832;SDS011;6987;19.472;-99.276;2023-10-09T07:03:43;3.28;;;3.13;;
13832;SDS011;6987;19.472;-99.276;2023-10-09T07:06:25;3.35;;;3.05;;
13832;SDS011;6987;19.472;-99.276;2023-10-09T07:09:12;2.35;;;2.25;;
13832;SDS011;6987;19.472;-99.276;2023-10-09T07:11:47;3.42;;;3.22;;
13832;SDS011;6987;19.472;-99.276;2023-10-09T07:14:35;2.60;;;2.50;;
13832;SDS011;6987;19.472;-99.276;2023-10-09T07:17:21;3.08;;;2.72;;
13832;SDS011;6987;19.472;-99.276;2023-10-09T07:19:52;2.80;;;2.60;;
13832;SDS011;6987;19.472;-99.276;2023-10-09T07:22:36;2.70;;;2.60;;
13832;SDS011;6987;19.472;-99.276;2023-10-09T07:25:19;3.33;;;3.10;;
13832;SDS011;6987;19.472;-99.276;2023-10-09T07:28:06;5.03;;;4.55;;
13832;SDS011;6987;19.472;-99.276;2023-10-09T07:30:55;7.00;;;6.30;;
13832;SDS011;6987;19.472;-99.276;2023-10-09T07:33:28;6.72;;;6.15;;
13832;SDS011;6987;19.472;-99.276;2023-10-09T07:36:17;6.03;;;5.57;;
13832;SDS011;6987;19.472;-99.276;2023-10-09T07:39:00;5.32;;;5.03;;
13832;SDS011;6987;19.472;-99.276;2023-10-09T07:41:39;4.85;;;4.45;;
13832;SDS011;6987;19.472;-99.276;2023-10-09T07:44:24;5.20;;;4.80;;
13832;SDS011;6987;19.472;-99.276;2023-10-09T07:47:02;5.80;;;5.20;;
13832;SDS011;6987;19.472;-99.276;2023-10-09T07:49:59;4.57;;;4.28;;
13832;SDS011;6987;19.472;-99.276;2023-10-09T07:52:28;6.18;;;4.55;;
13832;SDS011;6987;19.472;-99.276;2023-10-09T07:54:58;4.57;;;4.28;;
13832;SDS011;6987;19.472;-99.276;2023-10-09T07:57:40;5.03;;;4.63;;
13832;SDS011;6987;19.472;-99.276;2023-10-09T08:00:19;4.57;;;4.25;;
13832;SDS011;6987;19.472;-99.276;2023-10-09T08:03:24;4.22;;;3.92;;
13832;SDS011;6987;19.472;-99.276;2023-10-09T08:05:58;4.40;;;4.03;;
13832;SDS011;6987;19.472;-99.276;2023-10-09T08:08:54;4.80;;;4.38;;
13832;SDS011;6987;19.472;-99.276;2023-10-09T08:11:36;5.35;;;4.85;;
13832;SDS011;6987;19.472;-99.276;2023-10-09T08:14:25;4.57;;;4.18;;
13832;SDS011;6987;19.472;-99.276;2023-10-09T08:17:15;4.03;;;3.72;;
13832;SDS011;6987;19.472;-99.276;2023-10-09T08:19:47;3.75;;;3.45;;
13832;SDS011;6987;19.472;-99.276;2023-10-09T08:22:24;4.47;;;4.07;;
13832;SDS011;6987;19.472;-99.276;2023-10-09T08:25:19;4.50;;;4.18;;
13832;SDS011;6987;19.472;-99.276;2023-10-09T08:27:58;3.28;;;3.08;;
13832;SDS011;6987;19.472;-99.276;2023-10-09T08:30:47;3.33;;;3.13;;
13832;SDS011;6987;19.472;-99.276;2023-10-09T08:33:30;3.83;;;3.63;;
13832;SDS011;6987;19.472;-99.276;2023-10-09T08:36:09;4.22;;;3.92;;
13832;SDS011;6987;19.472;-99.276;2023-10-09T08:38:40;3.92;;;3.72;;
13832;SDS011;6987;19.472;-99.276;2023-10-09T08:41:10;3.83;;;3.53;;
13832;SDS011;6987;19.472;-99.276;2023-10-09T08:43:49;4.25;;;3.95;;
13832;SDS011;6987;19.472;-99.276;2023-10-09T08:46:19;3.80;;;3.50;;
13832;SDS011;6987;19.472;-99.276;2023-10-09T08:48:54;4.32;;;3.92;;
13832;SDS011;6987;19.472;-99.276;2023-10-09T08:51:24;4.22;;;3.92;;
13832;SDS011;6987;19.472;-99.276;2023-10-09T08:53:55;4.97;;;4.65;;
13832;SDS011;6987;19.472;-99.276;2023-10-09T08:56:24;4.00;;;3.42;;
13832;SDS011;6987;19.472;-99.276;2023-10-09T08:58:54;3.97;;;3.67;;
13832;SDS011;6987;19.472;-99.276;2023-10-09T09:01:24;4.07;;;3.78;;
13832;SDS011;6987;19.472;-99.276;2023-10-09T09:03:59;4.40;;;4.05;;
13832;SDS011;6987;19.472;-99.276;2023-10-09T09:06:36;4.30;;;3.90;;
13832;SDS011;6987;19.472;-99.276;2023-10-09T09:09:10;4.40;;;3.88;;
13832;SDS011;6987;19.472;-99.276;2023-10-09T09:11:41;4.25;;;3.95;;
13832;SDS011;6987;19.472;-99.276;2023-10-09T09:14:16;5.00;;;3.70;;
13832;SDS011;6987;19.472;-99.276;2023-10-09T09:16:48;3.08;;;2.88;;
13832;SDS011;6987;19.472;-99.276;2023-10-09T09:19:19;3.80;;;3.50;;
13832;SDS011;6987;19.472;-99.276;2023-10-09T09:22:05;3.90;;;3.60;;
13832;SDS011;6987;19.472;-99.276;2023-10-09T09:24:40;3.80;;;3.60;;
13832;SDS011;6987;19.472;-99.276;2023-10-09T09:27:34;3.88;;;3.58;;
13832;SDS011;6987;19.472;-99.276;2023-10-09T09:30:24;3.33;;;3.13;;
13832;SDS011;6987;19.472;-99.276;2023-10-09T09:32:59;3.42;;;3.13;;
13832;SDS011;6987;19.472;-99.276;2023-10-09T09:36:00;4.50;;;4.10;;
13832;SDS011;6987;19.472;-99.276;2023-10-09T09:38:31;3.95;;;3.60;;
13832;SDS011;6987;19.472;-99.276;2023-10-09T09:41:13;3.67;;;3.38;;
13832;SDS011;6987;19.472;-99.276;2023-10-09T09:43:51;4.07;;;3.78;;
13832;SDS011;6987;19.472;-99.276;2023-10-09T09:46:26;4.07;;;3.78;;
13832;SDS011;6987;19.472;-99.276;2023-10-09T09:49:00;3.17;;;2.97;;
13832;SDS011;6987;19.472;-99.276;2023-10-09T09:51:34;3.78;;;3.58;;
13832;SDS011;6987;19.472;-99.276;2023-10-09T09:54:04;4.03;;;3.72;;
13832;SDS011;6987;19.472;-99.276;2023-10-09T09:56:35;4.07;;;3.78;;
13832;SDS011;6987;19.472;-99.276;2023-10-09T09:59:07;4.75;;;4.28;;
13832;SDS011;6987;19.472;-99.276;2023-10-09T10:01:47;6.13;;;4.15;;
13832;SDS011;6987;19.472;-99.276;2023-10-09T10:04:23;4.50;;;4.10;;
13832;SDS011;6987;19.472;-99.276;2023-10-09T10:06:57;5.18;;;4.78;;
13832;SDS011;6987;19.472;-99.276;2023-10-09T10:09:35;6.22;;;5.47;;
13832;SDS011;6987;19.472;-99.276;2023-10-09T10:12:06;6.72;;;5.30;;
13832;SDS011;6987;19.472;-99.276;2023-10-09T10:17:35;5.40;;;4.93;;
13832;SDS011;6987;19.472;-99.276;2023-10-09T10:23:42;4.55;;;4.15;;
13832;SDS011;6987;19.472;-99.276;2023-10-09T10:26:17;4.90;;;4.47;;
13832;SDS011;6987;19.472;-99.276;2023-10-09T10:31:53;4.82;;;3.90;;
13832;SDS011;6987;19.472;-99.276;2023-10-09T10:34:23;4.60;;;3.83;;
13832;SDS011;6987;19.472;-99.276;2023-10-09T10:36:53;4.38;;;3.95;;
13832;SDS011;6987;19.472;-99.276;2023-10-09T10:39:33;4.15;;;3.85;;
13832;SDS011;6987;19.472;-99.276;2023-10-09T10:42:17;4.32;;;3.92;;
13832;SDS011;6987;19.472;-99.276;2023-10-09T10:44:59;4.32;;;3.80;;
13832;SDS011;6987;19.472;-99.276;2023-10-09T10:47:51;3.55;;;3.25;;
13832;SDS011;6987;19.472;-99.276;2023-10-09T10:50:24;4.15;;;3.75;;
13832;SDS011;6987;19.472;-99.276;2023-10-09T10:53:09;3.47;;;3.28;;
13832;SDS011;6987;19.472;-99.276;2023-10-09T10:55:56;3.47;;;3.28;;
13832;SDS011;6987;19.472;-99.276;2023-10-09T10:58:43;3.47;;;3.13;;
13832;SDS011;6987;19.472;-99.276;2023-10-09T11:01:37;3.72;;;3.40;;
13832;SDS011;6987;19.472;-99.276;2023-10-09T11:04:19;3.88;;;3.58;;
13832;SDS011;6987;19.472;-99.276;2023-10-09T11:06:53;3.85;;;3.33;;
13832;SDS011;6987;19.472;-99.276;2023-10-09T11:09:42;3.72;;;3.45;;
13832;SDS011;6987;19.472;-99.276;2023-10-09T11:12:26;3.63;;;3.33;;
13832;SDS011;6987;19.472;-99.276;2023-10-09T11:15:04;3.88;;;3.58;;
13832;SDS011;6987;19.472;-99.276;2023-10-09T11:17:58;4.50;;;3.78;;
13832;SDS011;6987;19.472;-99.276;2023-10-09T11:20:31;5.07;;;3.60;;
13832;SDS011;6987;19.472;-99.276;2023-10-09T11:23:02;4.20;;;3.90;;
13832;SDS011;6987;19.472;-99.276;2023-10-09T11:25:42;4.18;;;3.85;;
13832;SDS011;6987;19.472;-99.276;2023-10-09T11:28:20;4.65;;;4.22;;
13832;SDS011;6987;19.472;-99.276;2023-10-09T11:31:06;4.45;;;3.78;;
13832;SDS011;6987;19.472;-99.276;2023-10-09T11:33:43;4.50;;;4.10;;
13832;SDS011;6987;19.472;-99.276;2023-10-09T11:36:12;4.20;;;3.80;;
13832;SDS011;6987;19.472;-99.276;2023-10-09T11:38:41;4.30;;;4.00;;
13832;SDS011;6987;19.472;-99.276;2023-10-09T11:41:11;4.22;;;3.83;;
13832;SDS011;6987;19.472;-99.276;2023-10-09T11:43:50;7.13;;;5.00;;
13832;SDS011;6987;19.472;-99.276;2023-10-09T11:46:20;8.40;;;4.78;;
13832;SDS011;6987;19.472;-99.276;2023-10-09T11:49:16;5.53;;;4.53;;
13832;SDS011;6987;19.472;-99.276;2023-10-09T11:52:06;5.38;;;4.88;;
13832;SDS011;6987;19.472;-99.276;2023-10-09T11:54:52;4.82;;;4.43;;
13832;SDS011;6987;19.472;-99.276;2023-10-09T11:57:23;5.47;;;4.60;;
13832;SDS011;6987;19.472;-99.276;2023-10-09T12:00:01;4.50;;;4.07;;
13832;SDS011;6987;19.472;-99.276;2023-10-09T12:02:53;5.13;;;4.55;;
13832;SDS011;6987;19.472;-99.276;2023-10-09T12:05:30;6.97;;;4.40;;
13832;SDS011;6987;19.472;-99.276;2023-10-09T12:08:01;6.18;;;4.00;;
13832;SDS011;6987;19.472;-99.276;2023-10-09T12:10:34;5.43;;;4.10;;
13832;SDS011;6987;19.472;-99.276;2023-10-09T12:13:05;5.20;;;4.43;;
13832;SDS011;6987;19.472;-99.276;2023-10-09T12:15:36;4.60;;;4.20;;
13832;SDS011;6987;19.472;-99.276;2023-10-09T12:18:06;5.40;;;4.55;;
13832;SDS011;6987;19.472;-99.276;2023-10-09T12:20:44;5.78;;;4.70;;
13832;SDS011;6987;19.472;-99.276;2023-10-09T12:23:16;6.60;;;4.88;;
13832;SDS011;6987;19.472;-99.276;2023-10-09T12:25:48;5.45;;;4.85;;
13832;SDS011;6987;19.472;-99.276;2023-10-09T12:28:22;5.30;;;4.82;;
13832;SDS011;6987;19.472;-99.276;2023-10-09T12:30:53;5.25;;;4.75;;
13832;SDS011;6987;19.472;-99.276;2023-10-09T12:33:27;6.05;;;4.82;;
13832;SDS011;6987;19.472;-99.276;2023-10-09T12:35:57;5.22;;;4.65;;
13832;SDS011;6987;19.472;-99.276;2023-10-09T12:38:27;5.65;;;5.03;;
13832;SDS011;6987;19.472;-99.276;2023-10-09T12:41:02;4.10;;;3.80;;
13832;SDS011;6987;19.472;-99.276;2023-10-09T12:43:43;4.82;;;4.43;;
13832;SDS011;6987;19.472;-99.276;2023-10-09T12:46:14;4.13;;;3.83;;
13832;SDS011;6987;19.472;-99.276;2023-10-09T12:48:44;5.07;;;4.57;;
13832;SDS011;6987;19.472;-99.276;2023-10-09T12:51:14;5.68;;;4.53;;
13832;SDS011;6987;19.472;-99.276;2023-10-09T12:53:44;5.82;;;4.43;;
13832;SDS011;6987;19.472;-99.276;2023-10-09T12:56:15;5.68;;;4.05;;
13832;SDS011;6987;19.472;-99.276;2023-10-09T12:58:44;5.68;;;4.45;;
13832;SDS011;6987;19.472;-99.276;2023-10-09T13:01:24;5.45;;;4.35;;
13832;SDS011;6987;19.472;-99.276;2023-10-09T13:03:57;4.68;;;4.25;;
13832;SDS011;6987;19.472;-99.276;2023-10-09T13:06:27;4.70;;;4.35;;
13832;SDS011;6987;19.472;-99.276;2023-10-09T13:08:56;6.70;;;4.90;;
13832;SDS011;6987;19.472;-99.276;2023-10-09T13:11:32;4.57;;;4.10;;
13832;SDS011;6987;19.472;-99.276;2023-10-09T13:14:03;4.75;;;4.35;;
13832;SDS011;6987;19.472;-99.276;2023-10-09T13:16:44;7.85;;;4.35;;
13832;SDS011;6987;19.472;-99.276;2023-10-09T13:19:15;8.40;;;4.63;;
13832;SDS011;6987;19.472;-99.276;2023-10-09T13:21:45;7.78;;;4.15;;
13832;SDS011;6987;19.472;-99.276;2023-10-09T13:24:15;4.63;;;4.05;;
13832;SDS011;6987;19.472;-99.276;2023-10-09T13:26:49;4.88;;;4.35;;
13832;SDS011;6987;19.472;-99.276;2023-10-09T13:29:23;5.82;;;4.20;;
13832;SDS011;6987;19.472;-99.276;2023-10-09T13:31:55;5.18;;;4.55;;
13832;SDS011;6987;19.472;-99.276;2023-10-09T13:34:28;5.82;;;4.00;;
13832;SDS011;6987;19.472;-99.276;2023-10-09T13:36:58;5.30;;;4.15;;
13832;SDS011;6987;19.472;-99.276;2023-10-09T13:39:37;7.32;;;4.10;;
13832;SDS011;6987;19.472;-99.276;2023-10-09T13:42:17;5.53;;;4.15;;
13832;SDS011;6987;19.472;-99.276;2023-10-09T13:44:50;4.72;;;4.38;;
13832;SDS011;6987;19.472;-99.276;2023-10-09T13:47:22;5.53;;;4.75;;
13832;SDS011;6987;19.472;-99.276;2023-10-09T13:49:57;3.63;;;3.38;;
13832;SDS011;6987;19.472;-99.276;2023-10-09T13:52:26;4.05;;;3.75;;
13832;SDS011;6987;19.472;-99.276;2023-10-09T13:54:56;5.03;;;4.05;;
13832;SDS011;6987;19.472;-99.276;2023-10-09T13:57:40;5.28;;;4.15;;
13832;SDS011;6987;19.472;-99.276;2023-10-09T14:00:11;6.53;;;4.65;;
13832;SDS011;6987;19.472;-99.276;2023-10-09T14:03:00;5.13;;;4.47;;
13832;SDS011;6987;19.472;-99.276;2023-10-09T14:05:37;5.47;;;4.95;;
13832;SDS011;6987;19.472;-99.276;2023-10-09T14:08:21;6.35;;;5.45;;
13832;SDS011;6987;19.472;-99.276;2023-10-09T14:10:52;7.65;;;6.00;;
13832;SDS011;6987;19.472;-99.276;2023-10-09T14:13:21;6.88;;;5.47;;
13832;SDS011;6987;19.472;-99.276;2023-10-09T14:15:54;5.65;;;5.10;;
13832;SDS011;6987;19.472;-99.276;2023-10-09T14:18:27;5.70;;;5.10;;
13832;SDS011;6987;19.472;-99.276;2023-10-09T14:21:00;6.93;;;6.22;;
13832;SDS011;6987;19.472;-99.276;2023-10-09T14:23:41;10.70;;;5.95;;
13832;SDS011;6987;19.472;-99.276;2023-10-09T14:26:14;6.60;;;5.72;;
13832;SDS011;6987;19.472;-99.276;2023-10-09T14:28:44;8.85;;;5.90;;
13832;SDS011;6987;19.472;-99.276;2023-10-09T14:31:14;6.70;;;5.95;;
13832;SDS011;6987;19.472;-99.276;2023-10-09T14:33:49;7.25;;;5.95;;
13832;SDS011;6987;19.472;-99.276;2023-10-09T14:36:19;8.65;;;6.10;;
13832;SDS011;6987;19.472;-99.276;2023-10-09T14:38:49;10.05;;;6.38;;
13832;SDS011;6987;19.472;-99.276;2023-10-09T14:41:20;8.48;;;6.50;;
13832;SDS011;6987;19.472;-99.276;2023-10-09T14:43:51;8.43;;;6.00;;
13832;SDS011;6987;19.472;-99.276;2023-10-09T14:46:20;9.90;;;6.18;;
13832;SDS011;6987;19.472;-99.276;2023-10-09T14:48:53;8.38;;;6.05;;
13832;SDS011;6987;19.472;-99.276;2023-10-09T14:51:23;7.38;;;5.90;;
13832;SDS011;6987;19.472;-99.276;2023-10-09T14:53:55;7.13;;;5.90;;
13832;SDS011;6987;19.472;-99.276;2023-10-09T14:56:27;9.00;;;6.45;;
13832;SDS011;6987;19.472;-99.276;2023-10-09T14:58:57;9.27;;;6.38;;
13832;SDS011;6987;19.472;-99.276;2023-10-09T15:01:26;7.50;;;5.88;;
13832;SDS011;6987;19.472;-99.276;2023-10-09T15:03:58;6.68;;;6.07;;
13832;SDS011;6987;19.472;-99.276;2023-10-09T15:06:30;6.82;;;5.88;;
13832;SDS011;6987;19.472;-99.276;2023-10-09T15:09:00;5.82;;;5.03;;
13832;SDS011;6987;19.472;-99.276;2023-10-09T15:11:34;5.97;;;5.20;;
13832;SDS011;6987;19.472;-99.276;2023-10-09T15:14:05;9.75;;;5.22;;
13832;SDS011;6987;19.472;-99.276;2023-10-09T15:16:35;4.78;;;4.38;;
13832;SDS011;6987;19.472;-99.276;2023-10-09T15:19:06;5.40;;;4.90;;
13832;SDS011;6987;19.472;-99.276;2023-10-09T15:21:36;4.95;;;4.55;;
13832;SDS011;6987;19.472;-99.276;2023-10-09T15:24:10;4.88;;;4.47;;
13832;SDS011;6987;19.472;-99.276;2023-10-09T15:26:41;4.70;;;4.35;;
13832;SDS011;6987;19.472;-99.276;2023-10-09T15:29:11;5.95;;;5.45;;
13832;SDS011;6987;19.472;-99.276;2023-10-09T15:31:42;6.43;;;5.80;;
13832;SDS011;6987;19.472;-99.276;2023-10-09T15:34:14;7.00;;;5.95;;
13832;SDS011;6987;19.472;-99.276;2023-10-09T15:36:46;7.93;;;6.25;;
13832;SDS011;6987;19.472;-99.276;2023-10-09T15:39:17;7.95;;;6.70;;